Time;durP1;ratioP1;P1;durP2;ratioP2;P2;SDS_P1;SDS_P2;PMS_P1;PMS_P2;Temp;Humidity;BMP_temperature;BMP_pressure;BME280_temperature;BME280_humidity;BME280_pressure;Samples;Min_cycle;Max_cycle;Signal;HPM_P1;HPM_P2
2022/12/01 00:00:11;;;;;;;37.80;13.52;;;8.70;85.90;;;;;;5113571;28;20048;-75
2022/12/01 00:02:37;;;;;;;35.17;12.80;;;8.70;86.80;;;;;;5113509;28;20085;-74
2022/12/01 00:05:02;;;;;;;32.90;12.13;;;8.70;86.00;;;;;;5113523;28;20043;-74
2022/12/01 00:07:28;;;;;;;38.08;12.68;;;8.70;85.80;;;;;;5113424;28;20053;-75
2022/12/01 00:12:42;;;;;;;33.42;12.82;;;8.70;85.90;;;;;;5113651;28;20067;-74
2022/12/01 00:15:09;;;;;;;33.47;11.43;;;8.60;85.80;;;;;;5113449;28;20016;-75
2022/12/01 00:17:35;;;;;;;34.22;12.68;;;8.60;86.50;;;;;;5112429;28;20016;-74
2022/12/01 00:20:01;;;;;;;42.05;13.88;;;8.60;85.80;;;;;;5113424;28;20024;-75
2022/12/01 00:22:26;;;;;;;33.05;12.93;;;8.60;85.90;;;;;;5113395;28;20026;-74
2022/12/01 00:24:52;;;;;;;35.88;12.90;;;8.60;86.00;;;;;;5113354;28;20040;-75
2022/12/01 00:27:17;;;;;;;35.42;13.35;;;8.60;86.00;;;;;;5112401;28;20028;-74
2022/12/01 00:29:44;;;;;;;40.35;13.55;;;8.60;86.10;;;;;;5113171;28;20048;-75
2022/12/01 00:32:10;;;;;;;35.88;12.80;;;8.60;86.10;;;;;;5113234;28;20028;-75
2022/12/01 00:34:36;;;;;;;36.97;12.68;;;8.60;86.20;;;;;;5095572;28;20035;-75
2022/12/01 00:37:03;;;;;;;37.03;12.90;;;8.60;86.10;;;;;;5113429;28;20505;-74
2022/12/01 00:39:28;;;;;;;41.88;14.07;;;8.60;86.10;;;;;;5113261;28;20023;-74
2022/12/01 00:41:54;;;;;;;39.75;13.23;;;8.60;86.10;;;;;;5113333;28;20024;-75
2022/12/01 00:44:19;;;;;;;36.85;13.52;;;8.60;86.10;;;;;;5112169;28;20036;-74
2022/12/01 00:46:45;;;;;;;37.88;12.73;;;8.50;86.10;;;;;;5112222;28;20039;-75
2022/12/01 00:49:12;;;;;;;42.25;13.45;;;8.50;86.40;;;;;;5112362;28;20533;-75
2022/12/01 00:51:37;;;;;;;45.88;14.27;;;8.50;86.50;;;;;;5112025;28;20403;-75
2022/12/01 00:54:03;;;;;;;38.13;12.75;;;8.60;86.50;;;;;;5112162;28;20050;-75
2022/12/01 00:56:28;;;;;;;41.83;13.65;;;8.60;86.50;;;;;;5113069;28;20028;-75
2022/12/01 00:58:54;;;;;;;40.45;13.40;;;8.60;86.40;;;;;;5113046;28;20073;-74
2022/12/01 01:01:20;;;;;;;42.33;13.45;;;8.50;86.30;;;;;;5113183;28;20016;-75
2022/12/01 01:03:45;;;;;;;38.13;13.27;;;8.50;86.40;;;;;;5113007;28;20110;-75
2022/12/01 01:06:12;;;;;;;39.92;14.07;;;8.50;86.50;;;;;;5113095;28;20032;-75
2022/12/01 01:08:38;;;;;;;38.25;14.40;;;8.60;86.60;;;;;;5112886;28;20020;-75
2022/12/01 01:11:04;;;;;;;37.42;13.40;;;8.60;86.50;;;;;;5112983;28;20024;-75
2022/12/01 01:13:30;;;;;;;40.13;13.95;;;8.60;86.50;;;;;;5112855;28;20028;-75
2022/12/01 01:16:10;;;;;;;39.40;14.02;;;8.60;86.50;;;;;;5116063;28;20102;-75
2022/12/01 01:18:36;;;;;;;37.28;12.48;;;8.60;86.50;;;;;;5116777;28;20024;-75
2022/12/01 01:21:07;;;;;;;45.60;14.25;;;8.60;86.50;;;;;;5116506;28;20032;-74
2022/12/01 01:23:33;;;;;;;39.28;13.82;;;8.60;86.40;;;;;;5115440;28;20030;-75
2022/12/01 01:26:15;;;;;;;43.67;14.68;;;8.60;86.50;;;;;;5116382;28;20096;-75
2022/12/01 01:28:41;;;;;;;;;;;8.60;86.60;;;;;;5116609;28;20063;-74
2022/12/01 01:31:09;;;;;;;43.30;13.40;;;8.60;86.50;;;;;;5116344;28;19912;-75
2022/12/01 01:33:36;;;;;;;46.42;14.75;;;8.50;86.50;;;;;;5116186;28;20039;-74
2022/12/01 01:36:02;;;;;;;44.40;14.77;;;8.50;86.70;;;;;;5116274;28;20020;-75
2022/12/01 01:38:28;;;;;;;41.53;15.15;;;8.60;86.90;;;;;;5116213;28;20093;-74
2022/12/01 01:40:55;;;;;;;43.63;14.60;;;8.60;86.90;;;;;;5116139;28;20036;-75
2022/12/01 01:43:46;;;;;;;45.25;14.52;;;8.50;86.70;;;;;;5116103;28;20020;-74
2022/12/01 01:46:18;;;;;;;38.75;13.63;;;8.50;86.70;;;;;;5115100;28;20035;-75
2022/12/01 01:48:49;;;;;;;39.47;13.20;;;8.50;86.70;;;;;;5115880;28;20083;-75
2022/12/01 01:51:18;;;;;;;40.55;14.40;;;8.50;87.40;;;;;;5115988;28;20032;-75
2022/12/01 01:53:45;;;;;;;40.10;13.70;;;8.60;86.90;;;;;;5115825;28;20080;-75
2022/12/01 01:56:10;;;;;;;40.63;14.25;;;8.50;86.70;;;;;;5115863;28;20025;-74
2022/12/01 01:58:37;;;;;;;44.47;14.93;;;8.50;86.90;;;;;;5115806;28;20034;-75
2022/12/01 02:01:04;;;;;;;39.35;13.93;;;8.60;87.10;;;;;;5115744;28;20419;-74
2022/12/01 02:03:30;;;;;;;40.95;13.38;;;8.60;87.20;;;;;;5114765;28;20032;-75
2022/12/01 02:05:57;;;;;;;36.20;12.85;;;8.60;87.10;;;;;;5115680;28;20097;-75
2022/12/01 02:08:22;;;;;;;37.25;13.10;;;8.60;87.00;;;;;;5115577;28;20115;-75
2022/12/01 02:11:12;;;;;;;37.78;13.40;;;8.50;86.90;;;;;;5115678;28;20024;-75
2022/12/01 02:14:06;;;;;;;39.95;13.35;;;8.50;86.90;;;;;;5114425;28;20028;-75
2022/12/01 02:16:41;;;;;;;38.90;12.90;;;8.50;86.90;;;;;;5115602;28;20020;-75
2022/12/01 02:19:15;;;;;;;36.72;12.82;;;8.50;86.80;;;;;;5115592;28;20043;-75
2022/12/01 02:22:12;;;;;;;39.67;13.90;;;8.50;87.00;;;;;;5114347;28;20020;-75
2022/12/01 02:24:59;;;;;;;41.42;13.95;;;8.50;87.30;;;;;;5115449;28;20013;-74
2022/12/01 02:27:58;;;;;;;37.88;13.80;;;8.50;87.20;;;;;;5115109;28;20012;-76
2022/12/01 02:30:52;;;;;;;36.25;12.38;;;8.50;87.20;;;;;;5114199;28;20028;-75
2022/12/01 02:33:22;;;;;;;39.00;12.90;;;8.50;87.20;;;;;;5115061;28;20048;-75
2022/12/01 02:36:12;;;;;;;39.78;13.35;;;8.50;87.30;;;;;;5115119;28;20072;-75
2022/12/01 02:39:01;;;;;;;39.10;14.18;;;8.50;87.40;;;;;;5113988;28;20024;-75
2022/12/01 02:41:42;;;;;;;37.80;13.13;;;8.50;87.40;;;;;;5114999;28;20024;-75
2022/12/01 02:44:12;;;;;;;35.50;13.40;;;8.50;87.30;;;;;;5114957;28;20020;-74
2022/12/01 02:46:40;;;;;;;46.70;13.82;;;8.50;87.30;;;;;;5114909;28;20023;-74
2022/12/01 02:49:14;;;;;;;40.85;13.00;;;8.50;87.40;;;;;;5114815;28;20043;-75
2022/12/01 02:51:43;;;;;;;36.17;13.80;;;8.60;87.30;;;;;;5113685;28;20020;-75
2022/12/01 02:54:11;;;;;;;39.63;13.40;;;8.60;87.30;;;;;;5114712;28;20036;-75
2022/12/01 02:56:36;;;;;;;39.67;13.80;;;8.50;87.20;;;;;;5114670;28;20024;-75
2022/12/01 02:59:12;;;;;;;38.47;12.98;;;8.60;87.20;;;;;;5113726;28;20062;-75
2022/12/01 03:02:06;;;;;;;38.28;13.43;;;8.50;87.00;;;;;;5114755;28;20020;-75
2022/12/01 03:05:03;;;;;;;37.13;12.93;;;8.50;86.90;;;;;;5114721;28;20016;-75
2022/12/01 03:07:42;;;;;;;33.83;12.75;;;8.50;87.00;;;;;;5113483;28;20046;-75
2022/12/01 03:10:30;;;;;;;36.80;12.88;;;8.40;87.10;;;;;;5114464;28;20043;-75
2022/12/01 03:13:17;;;;;;;36.95;11.82;;;8.40;87.20;;;;;;5113273;28;20028;-75
2022/12/01 03:16:03;;;;;;;33.00;12.75;;;8.40;87.30;;;;;;5114359;28;20016;-75
2022/12/01 03:18:38;;;;;;;36.70;13.43;;;8.40;87.40;;;;;;5114409;28;20024;-75
2022/12/01 03:21:08;;;;;;;31.10;11.95;;;8.40;87.40;;;;;;5114302;28;20432;-74
2022/12/01 03:23:39;;;;;;;35.38;12.20;;;8.40;87.50;;;;;;5114199;28;20031;-75
2022/12/01 03:26:09;;;;;;;35.03;12.85;;;8.40;87.50;;;;;;5114187;28;20042;-75
2022/12/01 03:28:39;;;;;;;39.67;12.90;;;8.40;87.40;;;;;;5113961;28;20498;-75
2022/12/01 03:31:10;;;;;;;34.20;12.77;;;8.40;87.40;;;;;;5114101;28;20023;-75
2022/12/01 03:33:47;;;;;;;42.58;13.50;;;8.50;87.60;;;;;;5114041;28;20024;-75
2022/12/01 03:36:38;;;;;;;34.65;12.45;;;8.40;87.50;;;;;;5114023;28;20027;-74
2022/12/01 03:39:09;;;;;;;38.88;12.68;;;8.50;87.50;;;;;;5113742;28;20024;-74
2022/12/01 03:41:45;;;;;;;39.70;14.25;;;8.50;87.50;;;;;;5114110;28;20038;-74
2022/12/01 03:44:15;;;;;;;29.50;11.45;;;8.50;87.60;;;;;;5113907;28;20049;-75
2022/12/01 03:46:59;;;;;;;34.90;12.13;;;8.50;87.60;;;;;;5113852;28;20024;-75
2022/12/01 03:49:25;;;;;;;36.63;13.32;;;8.50;87.50;;;;;;5113952;28;20035;-74
2022/12/01 03:52:11;;;;;;;37.20;12.63;;;8.50;87.50;;;;;;5113660;28;20375;-75
2022/12/01 03:54:55;;;;;;;39.00;14.20;;;8.50;87.30;;;;;;5113832;28;20028;-75
2022/12/01 03:57:30;;;;;;;32.15;11.80;;;8.50;87.30;;;;;;5113607;28;20024;-75
2022/12/01 03:59:56;;;;;;;37.53;12.93;;;8.50;87.20;;;;;;5113695;28;20019;-74
2022/12/01 04:02:26;;;;;;;31.67;12.02;;;8.50;87.20;;;;;;5113617;28;20028;-75
2022/12/01 04:04:52;;;;;;;34.80;13.18;;;8.50;87.20;;;;;;5113685;28;20028;-74
2022/12/01 04:07:19;;;;;;;30.42;11.45;;;8.50;87.10;;;;;;5113575;28;20024;-74
2022/12/01 04:09:44;;;;;;;35.15;11.77;;;8.50;86.90;;;;;;5113428;28;20024;-75
2022/12/01 04:12:28;;;;;;;33.10;12.15;;;8.50;86.90;;;;;;5113409;28;20028;-75
2022/12/01 04:14:57;;;;;;;27.85;11.68;;;8.50;87.00;;;;;;5113668;28;20045;-75
2022/12/01 04:17:24;;;;;;;32.72;12.75;;;8.40;86.90;;;;;;5113435;28;20024;-75
2022/12/01 04:19:49;;;;;;;33.92;12.55;;;8.50;87.10;;;;;;5113453;28;20016;-75
2022/12/01 04:22:15;;;;;;;32.67;12.40;;;8.40;87.10;;;;;;5113423;28;20050;-75
2022/12/01 04:24:41;;;;;;;26.13;10.30;;;8.50;87.00;;;;;;5113390;28;20032;-74
2022/12/01 04:27:07;;;;;;;30.38;11.68;;;8.50;86.90;;;;;;5113350;28;20031;-75
2022/12/01 04:29:33;;;;;;;29.40;12.27;;;8.50;86.90;;;;;;5113209;28;20103;-74
2022/12/01 04:31:58;;;;;;;29.80;11.05;;;8.50;86.90;;;;;;5113214;28;20035;-75
2022/12/01 04:34:24;;;;;;;33.38;11.77;;;8.50;86.80;;;;;;5113266;28;20035;-74
2022/12/01 04:36:50;;;;;;;28.17;11.40;;;8.40;86.80;;;;;;5112351;28;20024;-74
2022/12/01 04:39:15;;;;;;;32.88;11.48;;;8.50;86.80;;;;;;5112232;28;20031;-75
2022/12/01 04:41:41;;;;;;;26.55;10.80;;;8.50;86.80;;;;;;5113241;28;20028;-75
2022/12/01 04:44:09;;;;;;;29.42;10.38;;;8.50;86.80;;;;;;5112193;28;20036;-75
2022/12/01 04:46:35;;;;;;;28.50;11.30;;;8.50;86.70;;;;;;5113217;28;20023;-75
2022/12/01 04:49:00;;;;;;;27.00;10.57;;;8.50;86.70;;;;;;5113359;28;20020;-74
2022/12/01 04:51:26;;;;;;;28.30;10.60;;;8.50;86.60;;;;;;5117070;28;20028;-75
2022/12/01 04:53:52;;;;;;;28.63;10.88;;;8.50;86.50;;;;;;5115982;28;20032;-75
2022/12/01 04:56:18;;;;;;;32.40;11.18;;;8.50;86.40;;;;;;5116973;28;20086;-74
2022/12/01 04:58:44;;;;;;;27.48;10.73;;;8.50;86.50;;;;;;5099155;28;20050;-75
2022/12/01 05:01:12;;;;;;;26.60;10.82;;;8.50;86.40;;;;;;5116870;28;20048;-75
2022/12/01 05:03:40;;;;;;;31.55;10.43;;;8.50;86.50;;;;;;5116875;28;20020;-75
2022/12/01 05:06:12;;;;;;;27.42;9.82;;;8.50;86.50;;;;;;5115813;28;20105;-75
2022/12/01 05:08:38;;;;;;;;;;;8.50;86.50;;;;;;5117134;28;20020;-75
2022/12/01 05:11:06;;;;;;;27.58;10.90;;;8.50;86.40;;;;;;5116741;28;19911;-75
2022/12/01 05:13:32;;;;;;;30.30;11.13;;;8.50;86.40;;;;;;5116601;28;20070;-75
2022/12/01 05:16:13;;;;;;;28.15;11.50;;;8.40;86.40;;;;;;5116645;28;20418;-75
2022/12/01 05:18:39;;;;;;;29.13;10.85;;;8.40;86.50;;;;;;5116632;28;20051;-75
2022/12/01 05:21:07;;;;;;;29.67;11.32;;;8.40;86.40;;;;;;5116548;28;20017;-75
2022/12/01 05:23:34;;;;;;;29.35;10.80;;;8.40;86.50;;;;;;5116392;28;20062;-75
2022/12/01 05:26:01;;;;;;;29.00;9.95;;;8.40;86.40;;;;;;5115532;28;20039;-74
2022/12/01 05:28:27;;;;;;;29.92;11.15;;;8.40;86.40;;;;;;5116083;28;20052;-75
2022/12/01 05:30:53;;;;;;;29.30;10.82;;;8.40;86.40;;;;;;5116333;28;20039;-75
2022/12/01 05:33:23;;;;;;;33.03;11.15;;;8.40;86.40;;;;;;5115322;28;20060;-75
2022/12/01 05:35:50;;;;;;;32.35;11.30;;;8.40;86.40;;;;;;5116241;28;20020;-75
2022/12/01 05:38:16;;;;;;;35.67;11.25;;;8.40;86.50;;;;;;5115302;28;20499;-75
2022/12/01 05:40:42;;;;;;;33.38;12.00;;;8.40;86.60;;;;;;5116279;28;20032;-75
2022/12/01 05:43:08;;;;;;;33.45;12.55;;;8.40;86.50;;;;;;5116079;28;20032;-74
2022/12/01 05:45:34;;;;;;;40.97;12.52;;;8.40;86.50;;;;;;5115042;28;20043;-74
2022/12/01 05:48:00;;;;;;;34.58;12.10;;;8.40;87.30;;;;;;5116049;28;20028;-74
2022/12/01 05:50:28;;;;;;;31.65;11.73;;;8.40;86.50;;;;;;5115983;28;20028;-75
2022/12/01 05:52:53;;;;;;;41.00;13.57;;;8.40;86.60;;;;;;5115863;28;20110;-75
2022/12/01 05:55:19;;;;;;;39.70;12.48;;;8.40;86.70;;;;;;5115909;28;20020;-74
2022/12/01 05:57:45;;;;;;;39.90;12.25;;;8.40;86.70;;;;;;5115831;28;20020;-75
2022/12/01 06:00:12;;;;;;;36.55;13.13;;;8.50;86.70;;;;;;5114322;28;20040;-75
2022/12/01 06:02:39;;;;;;;30.27;11.52;;;8.40;87.40;;;;;;5115727;28;20031;-74
2022/12/01 06:05:06;;;;;;;36.78;12.43;;;8.50;86.60;;;;;;5114665;28;20063;-75
2022/12/01 06:07:33;;;;;;;32.28;12.07;;;8.50;86.60;;;;;;5115516;28;20035;-74
2022/12/01 06:09:59;;;;;;;36.92;12.75;;;8.50;86.70;;;;;;5114526;28;20031;-75
2022/12/01 06:12:25;;;;;;;35.53;13.02;;;8.40;86.70;;;;;;5115491;28;20020;-74
2022/12/01 06:14:50;;;;;;;33.95;12.98;;;8.50;86.60;;;;;;5115448;28;20050;-74
2022/12/01 06:17:16;;;;;;;33.72;13.60;;;8.50;86.60;;;;;;5115444;28;20024;-74
2022/12/01 06:19:42;;;;;;;35.25;12.40;;;8.40;86.50;;;;;;5115355;28;20036;-74
2022/12/01 06:22:08;;;;;;;34.00;12.25;;;8.40;86.50;;;;;;5115505;28;20034;-74
2022/12/01 06:24:33;;;;;;;33.65;11.52;;;8.40;86.60;;;;;;5097356;28;20020;-74
2022/12/01 06:26:59;;;;;;;40.05;13.70;;;8.40;86.60;;;;;;5115351;28;20024;-74
2022/12/01 06:29:25;;;;;;;37.72;12.32;;;8.40;86.60;;;;;;5115003;28;20052;-75
2022/12/01 06:31:50;;;;;;;34.25;13.35;;;8.40;86.70;;;;;;5115173;28;20080;-75
2022/12/01 06:34:16;;;;;;;41.08;13.38;;;8.40;86.60;;;;;;5115104;28;20020;-75
2022/12/01 06:36:41;;;;;;;38.03;13.38;;;8.40;86.70;;;;;;5115069;28;20016;-75
2022/12/01 06:39:08;;;;;;;36.85;12.82;;;8.40;86.60;;;;;;5114015;28;20051;-74
2022/12/01 06:41:38;;;;;;;39.60;13.32;;;8.40;86.60;;;;;;5114030;28;20073;-74
2022/12/01 06:44:03;;;;;;;32.83;13.13;;;8.40;86.60;;;;;;5113943;28;20031;-74
2022/12/01 06:46:29;;;;;;;37.50;14.10;;;8.40;86.60;;;;;;5113853;28;20028;-75
2022/12/01 06:48:55;;;;;;;36.92;13.48;;;8.40;86.70;;;;;;5114854;28;20028;-74
2022/12/01 06:51:21;;;;;;;38.17;12.73;;;8.40;86.70;;;;;;5114787;28;20088;-75
2022/12/01 06:53:47;;;;;;;39.28;12.85;;;8.40;86.70;;;;;;5114671;28;20046;-74
2022/12/01 06:56:12;;;;;;;42.47;13.95;;;8.40;87.50;;;;;;5114663;28;20025;-75
2022/12/01 06:58:38;;;;;;;40.50;13.07;;;8.40;86.70;;;;;;5113659;28;20020;-74
2022/12/01 07:01:11;;;;;;;40.05;13.05;;;8.40;86.70;;;;;;5114571;28;20028;-74
2022/12/01 07:03:37;;;;;;;33.90;13.43;;;8.40;86.50;;;;;;5114537;28;20030;-75
2022/12/01 07:06:03;;;;;;;38.80;13.80;;;8.30;86.50;;;;;;5096635;28;20032;-74
2022/12/01 07:08:30;;;;;;;39.65;13.88;;;8.30;86.60;;;;;;5096399;28;20028;-74
2022/12/01 07:11:06;;;;;;;42.67;14.05;;;8.30;86.60;;;;;;5114442;28;20020;-74
2022/12/01 07:13:32;;;;;;;41.13;14.30;;;8.30;86.60;;;;;;5112571;28;20020;-74
2022/12/01 07:15:57;;;;;;;37.85;13.70;;;8.30;86.60;;;;;;5114322;28;20028;-75
2022/12/01 07:18:23;;;;;;;38.45;14.27;;;8.30;86.60;;;;;;5113314;28;20024;-74
2022/12/01 07:20:49;;;;;;;35.95;14.48;;;8.30;86.50;;;;;;5114194;28;20031;-74
2022/12/01 07:23:14;;;;;;;39.05;13.68;;;8.30;86.40;;;;;;5114184;28;20048;-74
2022/12/01 07:25:40;;;;;;;40.53;13.80;;;8.30;86.40;;;;;;5114156;28;20032;-74
2022/12/01 07:28:05;;;;;;;38.97;14.13;;;8.30;86.20;;;;;;5114048;28;20052;-75
2022/12/01 07:30:31;;;;;;;36.67;14.02;;;8.30;86.30;;;;;;5114048;28;20052;-74
2022/12/01 07:32:57;;;;;;;39.33;13.40;;;8.30;86.30;;;;;;5096000;28;20032;-75
2022/12/01 07:35:22;;;;;;;32.85;13.63;;;8.30;86.30;;;;;;5113970;28;20044;-74
2022/12/01 07:37:54;;;;;;;40.58;13.32;;;8.30;86.00;;;;;;5114083;28;20052;-75
2022/12/01 07:40:19;;;;;;;40.20;13.53;;;8.30;86.20;;;;;;5112998;28;20027;-75
2022/12/01 07:42:45;;;;;;;36.67;13.23;;;8.30;86.00;;;;;;5113863;28;20032;-75
2022/12/01 07:45:11;;;;;;;39.67;13.82;;;8.30;85.90;;;;;;5113833;28;20059;-75
2022/12/01 07:47:36;;;;;;;37.17;13.45;;;8.30;85.70;;;;;;5112928;28;20036;-75
2022/12/01 07:50:02;;;;;;;45.40;13.63;;;8.20;85.70;;;;;;5113915;28;20046;-74
2022/12/01 07:52:28;;;;;;;41.05;13.82;;;8.20;85.80;;;;;;5112815;28;20025;-74
2022/12/01 07:54:53;;;;;;;37.78;13.20;;;8.20;85.50;;;;;;5113690;28;20044;-75
2022/12/01 07:57:19;;;;;;;40.47;14.10;;;8.20;85.70;;;;;;5113717;28;20047;-75
2022/12/01 07:59:45;;;;;;;38.55;12.95;;;8.20;85.80;;;;;;5113649;28;20035;-74
2022/12/01 08:02:10;;;;;;;35.05;12.82;;;8.30;85.90;;;;;;5113586;28;20028;-74
2022/12/01 08:04:36;;;;;;;36.22;13.32;;;8.30;85.80;;;;;;5112735;28;20020;-75
2022/12/01 08:07:02;;;;;;;36.35;15.07;;;8.30;85.60;;;;;;5112521;28;20051;-75
2022/12/01 08:09:27;;;;;;;37.92;14.63;;;8.30;85.60;;;;;;5113468;28;20050;-74
2022/12/01 08:11:53;;;;;;;39.15;14.25;;;8.30;85.60;;;;;;5113457;28;20051;-74
2022/12/01 08:14:19;;;;;;;36.45;14.18;;;8.30;85.50;;;;;;5113457;28;20043;-74
2022/12/01 08:16:46;;;;;;;35.85;13.43;;;8.30;85.30;;;;;;5113481;28;20027;-75
2022/12/01 08:19:12;;;;;;;40.30;14.30;;;8.30;85.10;;;;;;5113488;28;20055;-74
2022/12/01 08:21:38;;;;;;;44.22;13.77;;;8.40;85.10;;;;;;5113441;28;20024;-74
2022/12/01 08:24:04;;;;;;;44.08;13.70;;;8.40;85.00;;;;;;5115413;28;20049;-74
2022/12/01 08:26:30;;;;;;;40.92;14.77;;;8.40;84.80;;;;;;5117633;28;20036;-75
2022/12/01 08:28:56;;;;;;;42.05;14.63;;;8.40;84.90;;;;;;5116399;28;20051;-75
2022/12/01 08:31:25;;;;;;;37.92;14.13;;;8.40;84.70;;;;;;5117655;28;20048;-74
2022/12/01 08:33:51;;;;;;;40.33;14.25;;;8.50;84.70;;;;;;5117398;28;20107;-75
2022/12/01 08:36:17;;;;;;;40.45;13.40;;;8.50;84.50;;;;;;5117429;28;20069;-75
2022/12/01 08:38:43;;;;;;;38.90;14.10;;;8.50;84.30;;;;;;5117392;28;20075;-75
2022/12/01 08:41:10;;;;;;;39.17;13.98;;;8.50;84.30;;;;;;5116328;28;20039;-74
2022/12/01 08:43:40;;;;;;;39.95;15.07;;;8.50;84.40;;;;;;5117287;28;20039;-75
2022/12/01 08:46:07;;;;;;;37.80;13.52;;;8.40;84.30;;;;;;5117441;28;20056;-75
2022/12/01 08:48:33;;;;;;;39.85;14.07;;;8.40;84.40;;;;;;5117206;28;20387;-74
2022/12/01 08:51:06;;;;;;;41.00;14.60;;;8.40;84.40;;;;;;5117126;28;20020;-74
2022/12/01 08:53:34;;;;;;;44.13;15.07;;;8.40;84.20;;;;;;5117020;28;20051;-75
2022/12/01 08:56:05;;;;;;;44.08;14.45;;;8.60;84.30;;;;;;5117079;28;20419;-74
2022/12/01 08:58:31;;;;;;;43.20;13.83;;;9.00;84.40;;;;;;5117243;28;20017;-74
2022/12/01 09:01:02;;;;;;;37.55;14.70;;;9.50;83.50;;;;;;5116922;28;20054;-74
2022/12/01 09:03:27;;;;;;;44.67;16.17;;;9.90;82.40;;;;;;5115929;28;20024;-75
2022/12/01 09:05:53;;;;;;;44.42;15.40;;;10.30;81.10;;;;;;5099067;28;20038;-74
2022/12/01 09:08:31;;;;;;;40.65;15.43;;;10.40;80.20;;;;;;5116706;28;20036;-75
2022/12/01 09:10:57;;;;;;;41.95;14.88;;;10.30;79.30;;;;;;5116933;28;20032;-75
2022/12/01 09:13:24;;;;;;;43.63;15.07;;;10.10;79.10;;;;;;5116582;28;20024;-75
2022/12/01 09:16:05;;;;;;;43.78;15.60;;;9.90;79.20;;;;;;5116699;28;20017;-74
2022/12/01 09:18:31;;;;;;;40.33;14.85;;;9.60;79.40;;;;;;5115632;28;20021;-74
2022/12/01 09:20:57;;;;;;;44.33;15.20;;;9.40;79.80;;;;;;5115504;28;20020;-74
2022/12/01 09:23:23;;;;;;;47.55;16.05;;;9.30;80.10;;;;;;5116530;28;20094;-74
2022/12/01 09:25:50;;;;;;;43.35;15.90;;;9.20;80.40;;;;;;5116495;28;20025;-75
2022/12/01 09:28:19;;;;;;;48.20;14.77;;;9.10;80.70;;;;;;5116279;28;20036;-74
2022/12/01 09:30:46;;;;;;;43.55;16.13;;;9.00;80.90;;;;;;5116500;28;20032;-75
2022/12/01 09:33:12;;;;;;;50.30;14.85;;;8.90;81.10;;;;;;5116288;28;20031;-75
2022/12/01 09:35:38;;;;;;;43.60;15.90;;;8.80;81.40;;;;;;5115633;28;20024;-75
2022/12/01 09:38:04;;;;;;;46.95;16.35;;;8.70;81.70;;;;;;5116270;28;20026;-75
2022/12/01 09:40:37;;;;;;;45.42;14.63;;;8.70;81.80;;;;;;5116226;28;20061;-74
2022/12/01 09:43:04;;;;;;;;;;;8.60;82.00;;;;;;5116666;28;20024;-74
2022/12/01 09:45:35;;;;;;;38.00;13.85;;;8.60;82.00;;;;;;5116095;28;19936;-74
2022/12/01 09:48:03;;;;;;;41.65;14.70;;;8.50;82.30;;;;;;5116094;28;20023;-74
2022/12/01 09:50:31;;;;;;;48.83;17.35;;;8.50;82.50;;;;;;5115054;28;20021;-75
2022/12/01 09:53:05;;;;;;;42.90;16.08;;;8.50;82.70;;;;;;5115905;28;20031;-74
2022/12/01 09:55:32;;;;;;;47.45;16.05;;;8.50;82.90;;;;;;5115953;28;20082;-74
2022/12/01 09:57:59;;;;;;;44.33;15.27;;;8.50;83.10;;;;;;5115984;28;20042;-74
2022/12/01 10:00:31;;;;;;;44.83;15.65;;;8.50;83.30;;;;;;5115830;28;20027;-74
2022/12/01 10:03:20;;;;;;;49.33;15.68;;;8.60;83.40;;;;;;5115891;28;20019;-74
2022/12/01 10:06:08;;;;;;;48.45;16.20;;;8.60;83.60;;;;;;5115768;28;20040;-74
2022/12/01 10:08:38;;;;;;;42.17;15.27;;;8.60;83.60;;;;;;5115715;28;20103;-74
2022/12/01 10:11:40;;;;;;;51.72;15.70;;;8.70;83.70;;;;;;5115664;28;20042;-74
2022/12/01 10:14:15;;;;;;;48.92;17.13;;;8.70;83.80;;;;;;5114946;28;20108;-74
2022/12/01 10:17:22;;;;;;;47.20;15.98;;;8.70;83.80;;;;;;5115550;28;20020;-74
2022/12/01 10:20:11;;;;;;;43.88;15.52;;;8.70;83.80;;;;;;5087806;28;20100;-74
2022/12/01 10:23:25;;;;;;;48.13;15.07;;;8.80;83.80;;;;;;5115571;28;20028;-74
2022/12/01 10:25:55;;;;;;;;;;;8.80;83.70;;;;;;5033646;28;20038;-74
2022/12/01 10:28:42;;;;;;;42.08;14.02;;;8.80;83.70;;;;;;5016440;28;19913;-75
2022/12/01 10:31:19;;;;;;;43.53;14.07;;;8.80;83.80;;;;;;5077495;28;20052;-75
2022/12/01 10:34:24;;;;;;;45.17;14.98;;;8.80;83.90;;;;;;5114114;28;20112;-74
2022/12/01 10:36:50;;;;;;;40.55;14.02;;;8.80;84.00;;;;;;5100697;28;20035;-75
2022/12/01 10:39:29;;;;;;;39.67;14.05;;;8.80;83.90;;;;;;5115049;28;20406;-75
2022/12/01 10:42:06;;;;;;;37.35;13.25;;;8.90;83.90;;;;;;5114962;28;20024;-75
2022/12/01 10:44:34;;;;;;;37.65;13.95;;;8.90;83.80;;;;;;5114969;28;20035;-75
2022/12/01 10:47:00;;;;;;;38.70;13.98;;;8.90;83.80;;;;;;5113795;28;20020;-74
2022/12/01 10:49:38;;;;;;;42.92;15.43;;;8.90;83.80;;;;;;5114891;28;20031;-75
2022/12/01 10:52:04;;;;;;;42.33;13.63;;;9.00;83.80;;;;;;5114750;28;20024;-74
2022/12/01 10:54:38;;;;;;;40.83;14.13;;;9.00;83.70;;;;;;5114780;28;20046;-75
2022/12/01 10:57:14;;;;;;;38.60;14.77;;;9.00;83.60;;;;;;5114757;28;20042;-75
2022/12/01 10:59:50;;;;;;;38.20;14.25;;;9.00;83.50;;;;;;5113714;28;20016;-74
2022/12/01 11:02:21;;;;;;;39.35;14.52;;;9.00;83.30;;;;;;5114670;28;20024;-74
2022/12/01 11:04:54;;;;;;;42.27;14.90;;;9.00;83.10;;;;;;5114695;28;20024;-75
2022/12/01 11:07:27;;;;;;;40.45;14.63;;;9.00;83.10;;;;;;5113576;28;20032;-75
2022/12/01 11:10:20;;;;;;;39.35;15.25;;;9.00;83.10;;;;;;5113462;28;20039;-75
2022/12/01 11:13:02;;;;;;;43.17;15.10;;;9.00;83.20;;;;;;5114429;28;20106;-75
2022/12/01 11:15:32;;;;;;;39.90;13.70;;;9.00;83.20;;;;;;5114448;28;20023;-74
2022/12/01 11:18:25;;;;;;;37.15;14.07;;;9.10;83.40;;;;;;5114338;28;20024;-74
2022/12/01 11:21:26;;;;;;;42.67;14.25;;;9.00;83.40;;;;;;5103417;28;20095;-75
2022/12/01 11:23:55;;;;;;;37.80;14.10;;;9.10;83.20;;;;;;5095791;28;20033;-75
2022/12/01 11:26:33;;;;;;;35.55;14.35;;;9.10;83.10;;;;;;5114140;28;20084;-75
2022/12/01 11:29:00;;;;;;;34.58;13.93;;;9.10;82.90;;;;;;5109705;28;20039;-74
2022/12/01 11:31:42;;;;;;;39.85;14.52;;;9.10;82.90;;;;;;5113977;28;20036;-74
2022/12/01 11:34:24;;;;;;;40.58;14.63;;;9.10;82.80;;;;;;5114190;28;20024;-74
2022/12/01 11:37:01;;;;;;;34.05;13.90;;;9.10;82.90;;;;;;5114067;28;20024;-75
2022/12/01 11:39:31;;;;;;;46.83;14.93;;;9.20;82.90;;;;;;5113957;28;20028;-75
2022/12/01 11:42:03;;;;;;;43.55;14.80;;;9.10;83.10;;;;;;5114104;28;20012;-74
2022/12/01 11:44:31;;;;;;;43.78;15.32;;;9.20;83.00;;;;;;5113917;28;20103;-75
2022/12/01 11:47:14;;;;;;;37.83;14.20;;;9.20;82.90;;;;;;5113874;28;20077;-74
2022/12/01 11:50:00;;;;;;;37.92;14.32;;;9.30;82.90;;;;;;5113819;28;20020;-74
2022/12/01 11:52:29;;;;;;;36.33;13.60;;;9.20;82.90;;;;;;5112894;28;20066;-74
2022/12/01 11:55:11;;;;;;;39.83;13.90;;;9.30;82.60;;;;;;5113766;28;20076;-75
2022/12/01 11:57:39;;;;;;;34.80;14.27;;;9.30;82.60;;;;;;5113687;28;20024;-75
2022/12/01 12:00:12;;;;;;;38.33;14.30;;;9.30;82.60;;;;;;5113498;28;20070;-74
2022/12/01 12:03:28;;;;;;;41.92;14.20;;;9.30;82.50;;;;;;5113685;28;20056;-74
2022/12/01 12:06:09;;;;;;;37.40;13.50;;;9.30;82.50;;;;;;5031829;28;20041;-75
2022/12/01 12:09:09;;;;;;;33.65;13.25;;;9.20;82.00;;;;;;5015325;28;20137;-75
2022/12/01 12:11:43;;;;;;;42.13;13.60;;;9.20;82.00;;;;;;5097130;28;20040;-74
2022/12/01 12:14:39;;;;;;;37.05;12.65;;;9.20;82.00;;;;;;5113645;28;20028;-74
2022/12/01 12:17:08;;;;;;;39.50;13.07;;;9.20;82.00;;;;;;5113568;28;20080;-74
2022/12/01 12:19:46;;;;;;;39.72;13.82;;;9.20;82.00;;;;;;5113622;28;20050;-74
2022/12/01 12:22:33;;;;;;;35.78;13.15;;;9.20;82.00;;;;;;5113505;28;20032;-75
2022/12/01 12:25:02;;;;;;;37.92;13.43;;;9.20;82.10;;;;;;5113597;28;20035;-75
2022/12/01 12:28:01;;;;;;;33.40;13.05;;;9.20;82.20;;;;;;5113383;28;20088;-75
2022/12/01 12:30:35;;;;;;;32.38;13.73;;;9.20;82.00;;;;;;5112136;28;20044;-74
2022/12/01 12:33:25;;;;;;;35.47;13.13;;;9.30;82.50;;;;;;5113284;28;20024;-74
2022/12/01 12:35:57;;;;;;;36.80;13.00;;;9.20;81.50;;;;;;5113367;28;20035;-75
2022/12/01 12:38:48;;;;;;;34.00;13.10;;;9.20;82.00;;;;;;5113375;28;20463;-75
2022/12/01 12:41:22;;;;;;;36.78;13.38;;;9.30;82.00;;;;;;5113324;28;20046;-75
2022/12/01 12:44:14;;;;;;;38.17;12.80;;;9.30;81.90;;;;;;5113216;28;20051;-74
2022/12/01 12:46:45;;;;;;;37.33;13.35;;;9.30;81.50;;;;;;5082044;28;20040;-75
2022/12/01 12:50:02;;;;;;;37.03;13.45;;;9.40;81.70;;;;;;5113304;28;20115;-75
2022/12/01 12:52:35;;;;;;;33.80;13.32;;;9.40;80.70;;;;;;5014751;28;20045;-75
2022/12/01 12:55:32;;;;;;;35.25;13.18;;;9.30;81.00;;;;;;5108759;28;20040;-75
2022/12/01 12:58:15;;;;;;;33.08;12.10;;;9.40;81.20;;;;;;5113286;28;20092;-75
2022/12/01 13:00:57;;;;;;;37.28;13.77;;;9.40;80.60;;;;;;5112169;28;20044;-75
2022/12/01 13:03:22;;;;;;;38.90;13.95;;;9.40;80.90;;;;;;5113148;28;20024;-75